sensor_id;sensor_type;location;lat;lon;timestamp;temperature;humidity
72206;DHT22;60111;48.286;7.812;2023-03-01T00:00:34;-0.20;67.20
72206;DHT22;60111;48.286;7.812;2023-03-01T00:03:06;-0.20;66.70
72206;DHT22;60111;48.286;7.812;2023-03-01T00:05:43;-0.30;67.10
72206;DHT22;60111;48.286;7.812;2023-03-01T00:08:16;-0.30;67.10
72206;DHT22;60111;48.286;7.812;2023-03-01T00:10:49;-0.30;67.10
72206;DHT22;60111;48.286;7.812;2023-03-01T00:13:22;-0.40;67.30
72206;DHT22;60111;48.286;7.812;2023-03-01T00:15:54;-0.40;67.60
72206;DHT22;60111;48.286;7.812;2023-03-01T00:18:27;-0.40;67.50
72206;DHT22;60111;48.286;7.812;2023-03-01T00:21:00;-0.40;67.50
72206;DHT22;60111;48.286;7.812;2023-03-01T00:23:34;-0.40;67.50
72206;DHT22;60111;48.286;7.812;2023-03-01T00:26:09;-0.50;67.90
72206;DHT22;60111;48.286;7.812;2023-03-01T00:28:42;-0.50;67.80
72206;DHT22;60111;48.286;7.812;2023-03-01T00:31:21;-0.40;67.80
72206;DHT22;60111;48.286;7.812;2023-03-01T00:33:55;-0.40;67.70
72206;DHT22;60111;48.286;7.812;2023-03-01T00:36:34;-0.40;67.90
72206;DHT22;60111;48.286;7.812;2023-03-01T00:39:14;-0.50;67.90
72206;DHT22;60111;48.286;7.812;2023-03-01T00:41:45;-0.50;67.80
72206;DHT22;60111;48.286;7.812;2023-03-01T00:44:18;-0.50;68.20
72206;DHT22;60111;48.286;7.812;2023-03-01T00:46:51;-0.50;68.30
72206;DHT22;60111;48.286;7.812;2023-03-01T00:49:24;-0.50;68.20
72206;DHT22;60111;48.286;7.812;2023-03-01T00:51:57;-0.60;67.90
72206;DHT22;60111;48.286;7.812;2023-03-01T00:54:30;-0.60;68.10
72206;DHT22;60111;48.286;7.812;2023-03-01T00:57:02;-0.60;68.40
72206;DHT22;60111;48.286;7.812;2023-03-01T00:59:35;-0.60;68.50
72206;DHT22;60111;48.286;7.812;2023-03-01T01:02:07;-0.60;68.60
72206;DHT22;60111;48.286;7.812;2023-03-01T01:04:40;-0.60;68.50
72206;DHT22;60111;48.286;7.812;2023-03-01T01:07:13;-0.60;68.40
72206;DHT22;60111;48.286;7.812;2023-03-01T01:09:46;-0.60;68.30
72206;DHT22;60111;48.286;7.812;2023-03-01T01:12:19;-0.60;68.30
72206;DHT22;60111;48.286;7.812;2023-03-01T01:14:52;-0.60;68.60
72206;DHT22;60111;48.286;7.812;2023-03-01T01:17:24;-0.60;68.20
72206;DHT22;60111;48.286;7.812;2023-03-01T01:19:57;-0.70;68.30
72206;DHT22;60111;48.286;7.812;2023-03-01T01:22:29;-0.70;68.60
72206;DHT22;60111;48.286;7.812;2023-03-01T01:25:02;-0.70;68.10
72206;DHT22;60111;48.286;7.812;2023-03-01T01:27:35;-0.70;67.90
72206;DHT22;60111;48.286;7.812;2023-03-01T01:30:08;-0.80;68.10
72206;DHT22;60111;48.286;7.812;2023-03-01T01:32:41;-0.80;68.40
72206;DHT22;60111;48.286;7.812;2023-03-01T01:35:13;-0.80;68.60
72206;DHT22;60111;48.286;7.812;2023-03-01T01:37:46;-0.80;68.80
72206;DHT22;60111;48.286;7.812;2023-03-01T01:40:19;-0.80;68.90
72206;DHT22;60111;48.286;7.812;2023-03-01T01:42:51;-0.80;68.50
72206;DHT22;60111;48.286;7.812;2023-03-01T01:45:30;-0.80;68.40
72206;DHT22;60111;48.286;7.812;2023-03-01T01:48:05;-0.80;68.70
72206;DHT22;60111;48.286;7.812;2023-03-01T01:50:40;-0.80;68.70
72206;DHT22;60111;48.286;7.812;2023-03-01T01:53:15;-0.90;69.00
72206;DHT22;60111;48.286;7.812;2023-03-01T01:55:54;-0.90;68.90
72206;DHT22;60111;48.286;7.812;2023-03-01T01:58:30;-1.00;69.10
72206;DHT22;60111;48.286;7.812;2023-03-01T02:01:04;-0.90;68.90
72206;DHT22;60111;48.286;7.812;2023-03-01T02:03:39;-0.90;68.90
72206;DHT22;60111;48.286;7.812;2023-03-01T02:06:31;-1.00;68.90
72206;DHT22;60111;48.286;7.812;2023-03-01T02:09:10;-1.00;68.90
72206;DHT22;60111;48.286;7.812;2023-03-01T02:11:43;-1.10;69.40
72206;DHT22;60111;48.286;7.812;2023-03-01T02:14:16;-1.00;68.80
72206;DHT22;60111;48.286;7.812;2023-03-01T02:16:50;-1.00;69.30
72206;DHT22;60111;48.286;7.812;2023-03-01T02:19:42;-1.00;68.80
72206;DHT22;60111;48.286;7.812;2023-03-01T02:22:30;-1.10;69.30
72206;DHT22;60111;48.286;7.812;2023-03-01T02:30:30;-1.10;69.40
72206;DHT22;60111;48.286;7.812;2023-03-01T02:33:04;-1.10;69.50
72206;DHT22;60111;48.286;7.812;2023-03-01T02:35:38;-1.10;69.60
72206;DHT22;60111;48.286;7.812;2023-03-01T02:38:11;-1.10;69.60
72206;DHT22;60111;48.286;7.812;2023-03-01T02:40:43;-1.20;69.90
72206;DHT22;60111;48.286;7.812;2023-03-01T02:43:16;-1.10;70.10
72206;DHT22;60111;48.286;7.812;2023-03-01T02:45:50;-1.20;70.30
72206;DHT22;60111;48.286;7.812;2023-03-01T02:48:23;-1.20;70.20
72206;DHT22;60111;48.286;7.812;2023-03-01T02:51:09;-1.10;70.20
72206;DHT22;60111;48.286;7.812;2023-03-01T02:53:48;-1.20;70.40
72206;DHT22;60111;48.286;7.812;2023-03-01T02:56:19;-1.10;70.20
72206;DHT22;60111;48.286;7.812;2023-03-01T02:58:52;-1.10;70.30
72206;DHT22;60111;48.286;7.812;2023-03-01T03:01:25;-1.10;70.50
72206;DHT22;60111;48.286;7.812;2023-03-01T03:04:00;-1.10;70.40
72206;DHT22;60111;48.286;7.812;2023-03-01T03:06:33;-1.10;70.30
72206;DHT22;60111;48.286;7.812;2023-03-01T03:09:06;-1.10;70.40
72206;DHT22;60111;48.286;7.812;2023-03-01T03:11:39;-1.20;70.60
72206;DHT22;60111;48.286;7.812;2023-03-01T03:14:15;-1.10;70.40
72206;DHT22;60111;48.286;7.812;2023-03-01T03:16:49;-1.10;70.40
72206;DHT22;60111;48.286;7.812;2023-03-01T03:19:22;-1.10;70.20
72206;DHT22;60111;48.286;7.812;2023-03-01T03:21:54;-1.20;70.30
72206;DHT22;60111;48.286;7.812;2023-03-01T03:24:27;-1.20;70.50
72206;DHT22;60111;48.286;7.812;2023-03-01T03:27:00;-1.20;70.60
72206;DHT22;60111;48.286;7.812;2023-03-01T03:29:33;-1.20;70.20
72206;DHT22;60111;48.286;7.812;2023-03-01T03:32:06;-1.20;70.30
72206;DHT22;60111;48.286;7.812;2023-03-01T03:34:38;-1.20;70.20
72206;DHT22;60111;48.286;7.812;2023-03-01T03:37:11;-1.20;70.50
72206;DHT22;60111;48.286;7.812;2023-03-01T03:39:45;-1.30;70.30
72206;DHT22;60111;48.286;7.812;2023-03-01T03:42:18;-1.30;70.00
72206;DHT22;60111;48.286;7.812;2023-03-01T03:44:50;-1.30;70.60
72206;DHT22;60111;48.286;7.812;2023-03-01T03:47:23;-1.30;70.80
72206;DHT22;60111;48.286;7.812;2023-03-01T03:49:55;-1.30;70.70
72206;DHT22;60111;48.286;7.812;2023-03-01T03:52:28;-1.30;70.90
72206;DHT22;60111;48.286;7.812;2023-03-01T03:55:00;-1.30;70.80
72206;DHT22;60111;48.286;7.812;2023-03-01T03:57:33;-1.30;70.60
72206;DHT22;60111;48.286;7.812;2023-03-01T04:00:08;-1.20;70.70
72206;DHT22;60111;48.286;7.812;2023-03-01T04:02:46;-1.20;70.50
72206;DHT22;60111;48.286;7.812;2023-03-01T04:05:19;-1.20;70.50
72206;DHT22;60111;48.286;7.812;2023-03-01T04:07:52;-1.20;70.30
72206;DHT22;60111;48.286;7.812;2023-03-01T04:10:27;-1.30;70.30
72206;DHT22;60111;48.286;7.812;2023-03-01T04:13:00;-1.30;70.50
72206;DHT22;60111;48.286;7.812;2023-03-01T04:15:34;-1.30;70.60
72206;DHT22;60111;48.286;7.812;2023-03-01T04:18:08;-1.20;70.40
72206;DHT22;60111;48.286;7.812;2023-03-01T04:20:41;-1.30;70.30
72206;DHT22;60111;48.286;7.812;2023-03-01T04:23:17;-1.20;70.20
72206;DHT22;60111;48.286;7.812;2023-03-01T04:25:58;-1.30;70.50
72206;DHT22;60111;48.286;7.812;2023-03-01T04:28:33;-1.20;70.80
72206;DHT22;60111;48.286;7.812;2023-03-01T04:31:10;-1.20;70.70
72206;DHT22;60111;48.286;7.812;2023-03-01T04:33:49;-1.20;71.00
72206;DHT22;60111;48.286;7.812;2023-03-01T04:36:27;-1.20;70.90
72206;DHT22;60111;48.286;7.812;2023-03-01T04:38:59;-1.20;70.90
72206;DHT22;60111;48.286;7.812;2023-03-01T04:41:33;-1.20;71.00
72206;DHT22;60111;48.286;7.812;2023-03-01T04:44:07;-1.20;71.20
72206;DHT22;60111;48.286;7.812;2023-03-01T04:46:40;-1.20;71.10
72206;DHT22;60111;48.286;7.812;2023-03-01T04:49:13;-1.10;70.80
72206;DHT22;60111;48.286;7.812;2023-03-01T04:51:47;-1.10;70.70
72206;DHT22;60111;48.286;7.812;2023-03-01T04:54:20;-1.00;70.60
72206;DHT22;60111;48.286;7.812;2023-03-01T04:56:52;-1.00;70.50
72206;DHT22;60111;48.286;7.812;2023-03-01T04:59:25;-1.00;70.30
72206;DHT22;60111;48.286;7.812;2023-03-01T05:01:58;-1.00;70.10
72206;DHT22;60111;48.286;7.812;2023-03-01T05:04:31;-1.00;70.40
72206;DHT22;60111;48.286;7.812;2023-03-01T05:07:04;-1.00;70.50
72206;DHT22;60111;48.286;7.812;2023-03-01T05:09:36;-1.00;70.60
72206;DHT22;60111;48.286;7.812;2023-03-01T05:12:10;-1.00;70.60
72206;DHT22;60111;48.286;7.812;2023-03-01T05:14:42;-1.00;70.80
72206;DHT22;60111;48.286;7.812;2023-03-01T05:17:15;-1.00;70.60
72206;DHT22;60111;48.286;7.812;2023-03-01T05:19:47;-0.90;70.20
72206;DHT22;60111;48.286;7.812;2023-03-01T05:22:20;-0.90;70.40
72206;DHT22;60111;48.286;7.812;2023-03-01T05:24:52;-1.00;70.70
72206;DHT22;60111;48.286;7.812;2023-03-01T05:27:25;-0.90;70.50
72206;DHT22;60111;48.286;7.812;2023-03-01T05:29:58;-0.80;70.10
72206;DHT22;60111;48.286;7.812;2023-03-01T05:32:30;-0.90;70.50
72206;DHT22;60111;48.286;7.812;2023-03-01T05:35:03;-0.80;70.70
72206;DHT22;60111;48.286;7.812;2023-03-01T05:37:37;-0.70;70.40
72206;DHT22;60111;48.286;7.812;2023-03-01T05:40:11;-0.70;70.40
72206;DHT22;60111;48.286;7.812;2023-03-01T05:42:47;-0.70;70.50
72206;DHT22;60111;48.286;7.812;2023-03-01T05:45:21;-0.60;70.40
72206;DHT22;60111;48.286;7.812;2023-03-01T05:47:55;-0.60;70.10
72206;DHT22;60111;48.286;7.812;2023-03-01T05:50:29;-0.60;70.00
72206;DHT22;60111;48.286;7.812;2023-03-01T05:53:05;-0.60;70.20
72206;DHT22;60111;48.286;7.812;2023-03-01T05:55:40;-0.60;70.30
72206;DHT22;60111;48.286;7.812;2023-03-01T05:58:15;-0.60;70.20
72206;DHT22;60111;48.286;7.812;2023-03-01T06:00:48;-0.60;70.30
72206;DHT22;60111;48.286;7.812;2023-03-01T06:03:21;-0.60;70.20
72206;DHT22;60111;48.286;7.812;2023-03-01T06:05:57;-0.50;70.00
72206;DHT22;60111;48.286;7.812;2023-03-01T06:08:30;-0.50;69.90
72206;DHT22;60111;48.286;7.812;2023-03-01T06:11:02;-0.50;70.00
72206;DHT22;60111;48.286;7.812;2023-03-01T06:13:35;-0.50;70.10
72206;DHT22;60111;48.286;7.812;2023-03-01T06:16:15;-0.50;70.20
72206;DHT22;60111;48.286;7.812;2023-03-01T06:18:48;-0.50;69.90
72206;DHT22;60111;48.286;7.812;2023-03-01T06:21:20;-0.50;70.20
72206;DHT22;60111;48.286;7.812;2023-03-01T06:23:53;-0.50;70.30
72206;DHT22;60111;48.286;7.812;2023-03-01T06:26:25;-0.50;70.50
72206;DHT22;60111;48.286;7.812;2023-03-01T06:28:58;-0.40;70.20
72206;DHT22;60111;48.286;7.812;2023-03-01T06:31:31;-0.30;69.80
72206;DHT22;60111;48.286;7.812;2023-03-01T06:34:03;-0.30;69.80
72206;DHT22;60111;48.286;7.812;2023-03-01T06:36:36;-0.40;69.60
72206;DHT22;60111;48.286;7.812;2023-03-01T06:39:08;-0.40;69.90
72206;DHT22;60111;48.286;7.812;2023-03-01T06:41:41;-0.40;70.00
72206;DHT22;60111;48.286;7.812;2023-03-01T06:44:13;-0.40;69.90
72206;DHT22;60111;48.286;7.812;2023-03-01T06:46:46;-0.50;70.30
72206;DHT22;60111;48.286;7.812;2023-03-01T06:49:20;-0.50;70.50
72206;DHT22;60111;48.286;7.812;2023-03-01T06:51:52;-0.60;70.70
72206;DHT22;60111;48.286;7.812;2023-03-01T06:54:25;-0.70;71.10
72206;DHT22;60111;48.286;7.812;2023-03-01T06:56:58;-0.60;70.90
72206;DHT22;60111;48.286;7.812;2023-03-01T06:59:30;-0.60;71.00
72206;DHT22;60111;48.286;7.812;2023-03-01T07:02:03;-0.60;71.10
72206;DHT22;60111;48.286;7.812;2023-03-01T07:04:35;-0.60;70.70
72206;DHT22;60111;48.286;7.812;2023-03-01T07:07:08;-0.60;70.60
72206;DHT22;60111;48.286;7.812;2023-03-01T07:09:40;-0.70;71.00
72206;DHT22;60111;48.286;7.812;2023-03-01T07:12:13;-0.60;70.70
72206;DHT22;60111;48.286;7.812;2023-03-01T07:14:46;-0.50;71.00
72206;DHT22;60111;48.286;7.812;2023-03-01T07:17:18;-0.50;70.70
72206;DHT22;60111;48.286;7.812;2023-03-01T07:19:51;-0.50;71.10
72206;DHT22;60111;48.286;7.812;2023-03-01T07:22:23;-0.50;71.20
72206;DHT22;60111;48.286;7.812;2023-03-01T07:24:56;-0.50;70.90
72206;DHT22;60111;48.286;7.812;2023-03-01T07:27:28;-0.50;70.50
72206;DHT22;60111;48.286;7.812;2023-03-01T07:30:01;-0.40;70.60
72206;DHT22;60111;48.286;7.812;2023-03-01T07:32:34;-0.30;70.60
72206;DHT22;60111;48.286;7.812;2023-03-01T07:35:07;-0.40;70.60
72206;DHT22;60111;48.286;7.812;2023-03-01T07:37:40;-0.30;70.40
72206;DHT22;60111;48.286;7.812;2023-03-01T07:40:12;-0.30;70.10
72206;DHT22;60111;48.286;7.812;2023-03-01T07:42:45;-0.30;70.00
72206;DHT22;60111;48.286;7.812;2023-03-01T07:45:18;-0.30;70.30
72206;DHT22;60111;48.286;7.812;2023-03-01T07:47:51;-0.30;69.90
72206;DHT22;60111;48.286;7.812;2023-03-01T07:50:24;-0.20;70.10
72206;DHT22;60111;48.286;7.812;2023-03-01T07:52:57;-0.20;69.80
72206;DHT22;60111;48.286;7.812;2023-03-01T07:55:29;-0.20;69.80
72206;DHT22;60111;48.286;7.812;2023-03-01T07:58:02;-0.10;70.00
72206;DHT22;60111;48.286;7.812;2023-03-01T08:00:35;-0.10;69.60
72206;DHT22;60111;48.286;7.812;2023-03-01T08:03:07;-0.10;69.50
72206;DHT22;60111;48.286;7.812;2023-03-01T08:05:40;-0.20;69.70
72206;DHT22;60111;48.286;7.812;2023-03-01T08:08:13;-0.20;69.90
72206;DHT22;60111;48.286;7.812;2023-03-01T08:10:45;-0.20;70.30
72206;DHT22;60111;48.286;7.812;2023-03-01T08:13:22;-0.10;69.70
72206;DHT22;60111;48.286;7.812;2023-03-01T08:15:59;0.00;69.50
72206;DHT22;60111;48.286;7.812;2023-03-01T08:18:29;-0.10;69.60
72206;DHT22;60111;48.286;7.812;2023-03-01T08:21:10;0.00;69.50
72206;DHT22;60111;48.286;7.812;2023-03-01T08:23:37;0.10;69.50
72206;DHT22;60111;48.286;7.812;2023-03-01T08:26:12;0.10;69.70
72206;DHT22;60111;48.286;7.812;2023-03-01T08:28:46;0.10;69.70
72206;DHT22;60111;48.286;7.812;2023-03-01T08:31:23;0.20;69.20
72206;DHT22;60111;48.286;7.812;2023-03-01T08:33:58;0.30;68.60
72206;DHT22;60111;48.286;7.812;2023-03-01T08:36:39;0.30;68.50
72206;DHT22;60111;48.286;7.812;2023-03-01T08:39:14;0.30;68.00
72206;DHT22;60111;48.286;7.812;2023-03-01T08:41:48;0.30;68.40
72206;DHT22;60111;48.286;7.812;2023-03-01T08:44:20;0.30;68.60
72206;DHT22;60111;48.286;7.812;2023-03-01T08:46:53;0.40;68.50
72206;DHT22;60111;48.286;7.812;2023-03-01T08:49:27;0.30;68.60
72206;DHT22;60111;48.286;7.812;2023-03-01T08:51:59;0.40;68.80
72206;DHT22;60111;48.286;7.812;2023-03-01T08:54:32;0.50;68.60
72206;DHT22;60111;48.286;7.812;2023-03-01T08:57:05;0.50;68.20
72206;DHT22;60111;48.286;7.812;2023-03-01T08:59:37;0.50;67.90
72206;DHT22;60111;48.286;7.812;2023-03-01T09:02:12;0.60;67.90
72206;DHT22;60111;48.286;7.812;2023-03-01T09:04:46;0.70;67.70
72206;DHT22;60111;48.286;7.812;2023-03-01T09:07:18;0.70;67.70
72206;DHT22;60111;48.286;7.812;2023-03-01T09:09:51;0.70;67.70
72206;DHT22;60111;48.286;7.812;2023-03-01T09:12:25;0.80;67.20
72206;DHT22;60111;48.286;7.812;2023-03-01T09:14:57;0.80;67.50
72206;DHT22;60111;48.286;7.812;2023-03-01T09:17:30;0.80;67.60
72206;DHT22;60111;48.286;7.812;2023-03-01T09:20:03;0.90;66.70
72206;DHT22;60111;48.286;7.812;2023-03-01T09:22:37;1.00;67.00
72206;DHT22;60111;48.286;7.812;2023-03-01T09:25:09;1.10;66.90
72206;DHT22;60111;48.286;7.812;2023-03-01T09:27:42;1.20;66.60
72206;DHT22;60111;48.286;7.812;2023-03-01T09:30:15;1.20;66.30
72206;DHT22;60111;48.286;7.812;2023-03-01T09:32:47;1.30;66.60
72206;DHT22;60111;48.286;7.812;2023-03-01T09:35:20;1.40;66.30
72206;DHT22;60111;48.286;7.812;2023-03-01T09:37:54;1.40;66.60
72206;DHT22;60111;48.286;7.812;2023-03-01T09:40:27;1.50;65.70
72206;DHT22;60111;48.286;7.812;2023-03-01T09:43:05;1.50;65.60
72206;DHT22;60111;48.286;7.812;2023-03-01T09:45:38;1.60;66.00
72206;DHT22;60111;48.286;7.812;2023-03-01T09:48:16;1.70;65.50
72206;DHT22;60111;48.286;7.812;2023-03-01T09:50:47;1.80;65.00
72206;DHT22;60111;48.286;7.812;2023-03-01T09:53:23;1.90;65.10
72206;DHT22;60111;48.286;7.812;2023-03-01T09:56:02;2.00;64.70
72206;DHT22;60111;48.286;7.812;2023-03-01T09:58:57;2.10;64.70
72206;DHT22;60111;48.286;7.812;2023-03-01T10:01:30;2.30;64.20
72206;DHT22;60111;48.286;7.812;2023-03-01T10:09:45;2.90;62.80
72206;DHT22;60111;48.286;7.812;2023-03-01T10:12:20;3.00;61.90
72206;DHT22;60111;48.286;7.812;2023-03-01T10:15:15;3.20;61.50
72206;DHT22;60111;48.286;7.812;2023-03-01T10:17:57;3.20;60.90
72206;DHT22;60111;48.286;7.812;2023-03-01T10:20:36;3.30;60.60
72206;DHT22;60111;48.286;7.812;2023-03-01T10:23:03;3.80;60.10
72206;DHT22;60111;48.286;7.812;2023-03-01T10:25:49;4.20;58.50
72206;DHT22;60111;48.286;7.812;2023-03-01T10:28:26;4.40;57.70
72206;DHT22;60111;48.286;7.812;2023-03-01T10:30:58;4.60;57.30
72206;DHT22;60111;48.286;7.812;2023-03-01T10:33:33;4.90;56.40
72206;DHT22;60111;48.286;7.812;2023-03-01T10:36:06;5.20;55.50
72206;DHT22;60111;48.286;7.812;2023-03-01T10:38:53;5.50;54.70
72206;DHT22;60111;48.286;7.812;2023-03-01T10:41:27;5.90;54.10
72206;DHT22;60111;48.286;7.812;2023-03-01T10:43:59;6.90;52.30
72206;DHT22;60111;48.286;7.812;2023-03-01T10:46:34;7.80;50.40
72206;DHT22;60111;48.286;7.812;2023-03-01T10:49:18;8.80;47.40
72206;DHT22;60111;48.286;7.812;2023-03-01T10:51:53;9.80;45.70
72206;DHT22;60111;48.286;7.812;2023-03-01T10:54:28;11.00;44.60
72206;DHT22;60111;48.286;7.812;2023-03-01T10:57:04;11.90;41.50
72206;DHT22;60111;48.286;7.812;2023-03-01T10:59:38;12.60;40.40
72206;DHT22;60111;48.286;7.812;2023-03-01T11:02:16;13.20;38.40
72206;DHT22;60111;48.286;7.812;2023-03-01T11:08:01;13.60;37.70
72206;DHT22;60111;48.286;7.812;2023-03-01T11:10:35;13.80;37.30
72206;DHT22;60111;48.286;7.812;2023-03-01T11:13:16;14.00;36.60
72206;DHT22;60111;48.286;7.812;2023-03-01T11:16:03;14.30;36.30
72206;DHT22;60111;48.286;7.812;2023-03-01T11:18:36;14.20;35.30
72206;DHT22;60111;48.286;7.812;2023-03-01T11:21:10;14.30;35.40
72206;DHT22;60111;48.286;7.812;2023-03-01T11:23:43;14.20;35.60
72206;DHT22;60111;48.286;7.812;2023-03-01T11:26:18;14.40;35.30
72206;DHT22;60111;48.286;7.812;2023-03-01T11:28:54;14.70;35.20
72206;DHT22;60111;48.286;7.812;2023-03-01T11:31:29;14.70;35.00
72206;DHT22;60111;48.286;7.812;2023-03-01T11:34:11;14.70;34.10
72206;DHT22;60111;48.286;7.812;2023-03-01T11:36:52;14.50;34.70
72206;DHT22;60111;48.286;7.812;2023-03-01T11:42:09;14.20;34.80
72206;DHT22;60111;48.286;7.812;2023-03-01T11:44:41;14.20;35.50
72206;DHT22;60111;48.286;7.812;2023-03-01T11:47:20;14.30;34.90
72206;DHT22;60111;48.286;7.812;2023-03-01T11:55:44;14.10;34.50
72206;DHT22;60111;48.286;7.812;2023-03-01T11:58:23;13.80;34.80
72206;DHT22;60111;48.286;7.812;2023-03-01T12:09:39;13.20;36.30
72206;DHT22;60111;48.286;7.812;2023-03-01T12:12:28;13.30;36.60
72206;DHT22;60111;48.286;7.812;2023-03-01T12:15:06;13.20;36.40
72206;DHT22;60111;48.286;7.812;2023-03-01T12:17:57;13.00;36.90
72206;DHT22;60111;48.286;7.812;2023-03-01T12:20:46;12.90;36.60
72206;DHT22;60111;48.286;7.812;2023-03-01T12:26:29;12.70;36.90
72206;DHT22;60111;48.286;7.812;2023-03-01T12:37:20;12.60;37.80
72206;DHT22;60111;48.286;7.812;2023-03-01T12:42:48;12.30;37.20
72206;DHT22;60111;48.286;7.812;2023-03-01T12:48:24;12.00;37.40
72206;DHT22;60111;48.286;7.812;2023-03-01T12:50:59;11.80;37.90
72206;DHT22;60111;48.286;7.812;2023-03-01T12:53:36;11.90;38.70
72206;DHT22;60111;48.286;7.812;2023-03-01T12:56:13;11.80;38.80
72206;DHT22;60111;48.286;7.812;2023-03-01T12:58:51;11.80;39.10
72206;DHT22;60111;48.286;7.812;2023-03-01T13:01:32;11.80;39.50
72206;DHT22;60111;48.286;7.812;2023-03-01T13:04:19;11.80;38.50
72206;DHT22;60111;48.286;7.812;2023-03-01T13:07:10;11.80;38.80
72206;DHT22;60111;48.286;7.812;2023-03-01T13:12:49;11.80;38.50
72206;DHT22;60111;48.286;7.812;2023-03-01T13:15:26;11.80;38.40
72206;DHT22;60111;48.286;7.812;2023-03-01T13:18:04;11.80;39.20
72206;DHT22;60111;48.286;7.812;2023-03-01T13:20:52;11.70;39.40
72206;DHT22;60111;48.286;7.812;2023-03-01T13:26:09;11.60;39.70
72206;DHT22;60111;48.286;7.812;2023-03-01T13:34:39;11.30;39.90
72206;DHT22;60111;48.286;7.812;2023-03-01T13:37:24;11.30;39.30
72206;DHT22;60111;48.286;7.812;2023-03-01T13:39:53;11.30;39.60
72206;DHT22;60111;48.286;7.812;2023-03-01T13:42:38;11.20;40.30
72206;DHT22;60111;48.286;7.812;2023-03-01T13:48:15;11.20;40.20
72206;DHT22;60111;48.286;7.812;2023-03-01T13:50:51;11.20;39.80
72206;DHT22;60111;48.286;7.812;2023-03-01T13:53:27;11.10;39.60
72206;DHT22;60111;48.286;7.812;2023-03-01T13:56:03;11.00;39.70
72206;DHT22;60111;48.286;7.812;2023-03-01T13:58:53;11.00;40.60
72206;DHT22;60111;48.286;7.812;2023-03-01T14:01:33;10.90;40.30
72206;DHT22;60111;48.286;7.812;2023-03-01T14:04:16;10.90;40.80
72206;DHT22;60111;48.286;7.812;2023-03-01T14:06:38;11.00;40.10
72206;DHT22;60111;48.286;7.812;2023-03-01T14:14:48;10.80;40.70
72206;DHT22;60111;48.286;7.812;2023-03-01T14:17:24;10.70;41.40
72206;DHT22;60111;48.286;7.812;2023-03-01T14:20:02;10.70;41.40
72206;DHT22;60111;48.286;7.812;2023-03-01T14:22:32;10.80;41.40
72206;DHT22;60111;48.286;7.812;2023-03-01T14:28:17;10.70;40.60
72206;DHT22;60111;48.286;7.812;2023-03-01T14:30:52;10.60;41.20
72206;DHT22;60111;48.286;7.812;2023-03-01T14:33:33;10.40;41.40
72206;DHT22;60111;48.286;7.812;2023-03-01T14:36:09;10.30;42.00
72206;DHT22;60111;48.286;7.812;2023-03-01T14:38:45;10.30;41.10
72206;DHT22;60111;48.286;7.812;2023-03-01T14:41:21;10.40;41.80
72206;DHT22;60111;48.286;7.812;2023-03-01T14:44:00;10.30;40.90
72206;DHT22;60111;48.286;7.812;2023-03-01T14:46:41;10.30;41.60
72206;DHT22;60111;48.286;7.812;2023-03-01T14:49:25;10.20;41.80
72206;DHT22;60111;48.286;7.812;2023-03-01T14:52:02;10.20;41.50
72206;DHT22;60111;48.286;7.812;2023-03-01T14:54:43;10.20;42.70
72206;DHT22;60111;48.286;7.812;2023-03-01T14:57:23;10.10;41.80
72206;DHT22;60111;48.286;7.812;2023-03-01T14:59:55;9.90;42.10
72206;DHT22;60111;48.286;7.812;2023-03-01T15:02:29;9.90;42.70
72206;DHT22;60111;48.286;7.812;2023-03-01T15:05:04;9.80;42.90
72206;DHT22;60111;48.286;7.812;2023-03-01T15:07:40;9.90;42.30
72206;DHT22;60111;48.286;7.812;2023-03-01T15:10:25;9.90;42.70
72206;DHT22;60111;48.286;7.812;2023-03-01T15:12:49;9.90;42.70
72206;DHT22;60111;48.286;7.812;2023-03-01T15:18:13;9.80;42.70
72206;DHT22;60111;48.286;7.812;2023-03-01T15:20:36;9.70;42.90
72206;DHT22;60111;48.286;7.812;2023-03-01T15:23:34;9.70;42.30
72206;DHT22;60111;48.286;7.812;2023-03-01T15:25:47;9.70;42.80
72206;DHT22;60111;48.286;7.812;2023-03-01T15:28:28;9.60;43.00
72206;DHT22;60111;48.286;7.812;2023-03-01T15:31:03;9.70;43.10
72206;DHT22;60111;48.286;7.812;2023-03-01T15:33:37;9.70;43.40
72206;DHT22;60111;48.286;7.812;2023-03-01T15:36:45;9.60;43.20
72206;DHT22;60111;48.286;7.812;2023-03-01T15:41:58;9.50;43.40
72206;DHT22;60111;48.286;7.812;2023-03-01T15:44:36;9.40;43.50
72206;DHT22;60111;48.286;7.812;2023-03-01T15:47:23;9.30;44.00
72206;DHT22;60111;48.286;7.812;2023-03-01T15:49:58;9.30;43.80
72206;DHT22;60111;48.286;7.812;2023-03-01T15:52:40;9.20;43.40
72206;DHT22;60111;48.286;7.812;2023-03-01T15:55:23;9.10;44.00
72206;DHT22;60111;48.286;7.812;2023-03-01T15:58:04;9.00;44.40
72206;DHT22;60111;48.286;7.812;2023-03-01T16:00:38;9.00;44.30
72206;DHT22;60111;48.286;7.812;2023-03-01T16:03:11;8.90;44.60
72206;DHT22;60111;48.286;7.812;2023-03-01T16:05:44;8.90;44.40
72206;DHT22;60111;48.286;7.812;2023-03-01T16:08:17;8.80;44.90
72206;DHT22;60111;48.286;7.812;2023-03-01T16:10:50;8.70;45.30
72206;DHT22;60111;48.286;7.812;2023-03-01T16:13:23;8.60;45.30
72206;DHT22;60111;48.286;7.812;2023-03-01T16:15:56;8.50;45.70
72206;DHT22;60111;48.286;7.812;2023-03-01T16:18:29;8.50;45.40
72206;DHT22;60111;48.286;7.812;2023-03-01T16:21:02;8.50;45.30
72206;DHT22;60111;48.286;7.812;2023-03-01T16:23:34;8.40;45.60
72206;DHT22;60111;48.286;7.812;2023-03-01T16:26:07;8.30;46.30
72206;DHT22;60111;48.286;7.812;2023-03-01T16:28:42;8.10;46.00
72206;DHT22;60111;48.286;7.812;2023-03-01T16:31:18;8.00;46.50
72206;DHT22;60111;48.286;7.812;2023-03-01T16:33:55;8.00;46.20
72206;DHT22;60111;48.286;7.812;2023-03-01T16:36:28;7.80;46.60
72206;DHT22;60111;48.286;7.812;2023-03-01T16:39:01;7.70;46.90
72206;DHT22;60111;48.286;7.812;2023-03-01T16:41:34;7.70;47.00
72206;DHT22;60111;48.286;7.812;2023-03-01T16:44:07;7.70;47.40
72206;DHT22;60111;48.286;7.812;2023-03-01T16:46:41;7.60;47.50
72206;DHT22;60111;48.286;7.812;2023-03-01T16:49:14;7.50;47.90
72206;DHT22;60111;48.286;7.812;2023-03-01T16:51:47;7.50;47.60
72206;DHT22;60111;48.286;7.812;2023-03-01T16:54:20;7.40;47.80
72206;DHT22;60111;48.286;7.812;2023-03-01T16:56:52;7.40;48.10
72206;DHT22;60111;48.286;7.812;2023-03-01T16:59:25;7.30;48.40
72206;DHT22;60111;48.286;7.812;2023-03-01T17:01:57;7.20;48.60
72206;DHT22;60111;48.286;7.812;2023-03-01T17:04:30;7.10;48.60
72206;DHT22;60111;48.286;7.812;2023-03-01T17:07:03;7.00;49.00
72206;DHT22;60111;48.286;7.812;2023-03-01T17:09:38;7.00;49.40
72206;DHT22;60111;48.286;7.812;2023-03-01T17:12:14;6.90;49.40
72206;DHT22;60111;48.286;7.812;2023-03-01T17:14:47;6.90;49.40
72206;DHT22;60111;48.286;7.812;2023-03-01T17:17:20;6.90;49.50
72206;DHT22;60111;48.286;7.812;2023-03-01T17:19:53;6.80;49.40
72206;DHT22;60111;48.286;7.812;2023-03-01T17:22:25;6.80;49.60
72206;DHT22;60111;48.286;7.812;2023-03-01T17:24:58;6.70;49.70
72206;DHT22;60111;48.286;7.812;2023-03-01T17:27:31;6.70;49.80
72206;DHT22;60111;48.286;7.812;2023-03-01T17:30:05;6.60;50.10
72206;DHT22;60111;48.286;7.812;2023-03-01T17:32:39;6.60;50.40
72206;DHT22;60111;48.286;7.812;2023-03-01T17:35:12;6.50;50.40
72206;DHT22;60111;48.286;7.812;2023-03-01T17:37:44;6.50;50.40
72206;DHT22;60111;48.286;7.812;2023-03-01T17:40:17;6.50;50.60